Nea Smirni, Greece

8:31 PM EEST on August 27, 2016 (GMT +0300)
| | Change Station

Elev -9999 ft 0.00 °N, 0.00 °E | Updated

Clear
Clear
77 °F
Feels Like 77 °F
N
9
Wind Variable Wind from NNW
Gusts 13 mph

Today
High -- | Low -- °F
--% Chance of Precip.
Yesterday
High -- | Low -- °F
Precip. -- in
Pressure 30.04 in
Visibility 6.2 miles
Clouds Few 3500 ft
Dew Point 49 °F
Humidity 38%
Rainfall --
Snow Depth Not available.
6:50 AM 8:01 PM
Waning Crescent, 23% visible
METAR LGAV 271720Z 35007KT 9999 FEW035 26/08 Q1017 NOSIG
Pressure 30.04 in
Visibility 6.2 miles
Clouds Few 3500 ft
Dew Point 49 °F
Humidity 38%
Rainfall --
Snow Depth Not available.
6:50 AM 8:01 PM
Waning Crescent, 23% visible
METAR LGAV 271720Z 35007KT 9999 FEW035 26/08 Q1017 NOSIG

10-Day Weather Forecast

×

Almanac

Astronomy

Aug. 27, 2016 Rise Set
Actual Time
Civil Twilight
Nautical Twilight
Astronomical Twilight
Moon
Length of Visible Light
Length of Day
Tomorrow will be .
, % of the Moon is Illuminated

Today's Extremes

Country Highs Country Lows

Community

WunderPhotos

Upload Photos

1,935,387 photos uploaded!

WunderBlog® & News

Nearby

Air Quality

  Air Quality AQ Index Pollutant
Not available.

Snow Depth

Station Depth Elevation

Earthquake Activity

City Distance Mag. Time & Date
Minimum magnitude displayed is 2.5.

Coastal Water Temperatures

Place Temperature

Stations

Nearby Weather Stations

Station Location Temp. Windchill Dew Point Humidity Wind Precip. Elev Updated Type